createdAt,value
2023-08-15T00:00:48.928Z,88.66
2023-08-15T00:01:48.908Z,88.66
2023-08-15T00:02:49.020Z,88.66
2023-08-15T00:03:48.908Z,88.82
2023-08-15T00:04:48.895Z,88.76
2023-08-15T00:05:48.856Z,88.62
2023-08-15T00:06:48.837Z,88.36
2023-08-15T00:07:48.844Z,88.06
2023-08-15T00:08:48.816Z,88.36
2023-08-15T00:09:48.833Z,88.32
2023-08-15T00:10:48.797Z,88.46
2023-08-15T00:11:48.801Z,88.66
2023-08-15T00:12:48.777Z,88.36
2023-08-15T00:13:48.818Z,88.21
2023-08-15T00:14:48.786Z,88.46
2023-08-15T00:15:48.761Z,88.16
2023-08-15T00:16:48.788Z,88.36
2023-08-15T00:17:48.779Z,88.96
2023-08-15T00:18:48.757Z,88.26
2023-08-15T00:19:48.725Z,88.16
2023-08-15T00:20:48.709Z,88.56
2023-08-15T00:21:48.704Z,88.66
2023-08-15T00:22:48.709Z,88.52
2023-08-15T00:23:48.711Z,88.32
2023-08-15T00:24:48.662Z,88.32
2023-08-15T00:25:48.662Z,88.62
2023-08-15T00:26:48.664Z,88.66
2023-08-15T00:27:48.650Z,88.02
2023-08-15T00:28:48.651Z,88.32
2023-08-15T00:29:48.630Z,88.42
2023-08-15T00:30:48.629Z,88.42
2023-08-15T00:31:48.604Z,88.42
2023-08-15T00:32:48.674Z,88.12
2023-08-15T00:33:48.623Z,88.21
2023-08-15T00:34:48.580Z,88.32
2023-08-15T00:35:48.569Z,88.26
2023-08-15T00:36:48.535Z,88.36
2023-08-15T00:37:48.590Z,87.92
2023-08-15T00:38:48.556Z,87.76
2023-08-15T00:39:48.533Z,87.92
2023-08-15T00:40:48.507Z,87.96
2023-08-15T00:41:48.514Z,88.26
2023-08-15T00:42:48.525Z,88.36
2023-08-15T00:43:48.480Z,87.76
2023-08-15T00:44:48.508Z,88.36
2023-08-15T00:45:48.490Z,88.36
2023-08-15T00:46:48.484Z,88.66
2023-08-15T00:47:48.527Z,88.26
2023-08-15T00:48:48.428Z,88.46
2023-08-15T00:49:48.431Z,88.46
2023-08-15T00:51:21.990Z,88.66
2023-08-15T00:51:51.004Z,88.16
2023-08-15T00:52:48.392Z,88.56
2023-08-15T00:53:48.393Z,88.46
2023-08-15T00:54:48.386Z,88.36
2023-08-15T00:55:48.410Z,88.46
2023-08-15T00:56:48.378Z,88.66
2023-08-15T00:57:48.386Z,88.26
2023-08-15T00:58:48.378Z,88.46
2023-08-15T00:59:48.351Z,89.06
2023-08-15T01:00:48.335Z,88.66
2023-08-15T01:01:48.421Z,88.76
2023-08-15T01:02:49.424Z,89.06
2023-08-15T01:03:48.350Z,88.86
2023-08-15T01:04:48.298Z,88.70
2023-08-15T01:05:48.301Z,88.60
2023-08-15T01:06:48.267Z,88.76
2023-08-15T01:07:48.254Z,88.60
2023-08-15T01:08:48.270Z,89.20
2023-08-15T01:09:48.245Z,88.80
2023-08-15T01:10:48.250Z,89.40
2023-08-15T01:11:48.206Z,89.11
2023-08-15T01:12:48.217Z,88.80
2023-08-15T01:13:48.192Z,89.30
2023-08-15T01:14:48.212Z,89.50
2023-08-15T01:15:48.251Z,89.61
2023-08-15T01:16:48.173Z,89.61
2023-08-15T01:17:48.228Z,89.30
2023-08-15T01:18:48.152Z,90.00
2023-08-15T01:19:48.205Z,90.50
2023-08-15T01:20:48.145Z,90.00
2023-08-15T01:21:48.208Z,89.81
2023-08-15T01:22:48.144Z,89.90
2023-08-15T01:23:48.109Z,90.00
2023-08-15T01:24:48.229Z,90.00
2023-08-15T01:25:48.078Z,89.81
2023-08-15T01:26:48.076Z,90.65
2023-08-15T01:27:48.050Z,90.11
2023-08-15T01:28:48.058Z,89.70
2023-08-15T01:29:48.079Z,89.81
2023-08-15T01:30:48.029Z,90.00
2023-08-15T01:31:48.035Z,90.31
2023-08-15T01:32:48.064Z,90.35
2023-08-15T01:33:48.027Z,90.45
2023-08-15T01:34:48.002Z,90.55
2023-08-15T01:35:47.996Z,90.25
2023-08-15T01:36:47.980Z,90.35
2023-08-15T01:37:47.964Z,90.65
2023-08-15T01:38:47.970Z,91.05
2023-08-15T01:39:47.939Z,91.25
2023-08-15T01:40:47.939Z,91.96
2023-08-15T01:41:47.923Z,91.35
2023-08-15T01:42:47.928Z,91.35
2023-08-15T01:43:47.929Z,91.15
2023-08-15T01:44:47.896Z,91.65
2023-08-15T01:45:47.917Z,91.35
2023-08-15T01:46:47.929Z,91.85
2023-08-15T01:47:47.926Z,91.35
2023-08-15T01:48:47.855Z,91.35
2023-08-15T01:49:47.839Z,91.35
2023-08-15T01:50:47.833Z,91.45
2023-08-15T01:51:47.847Z,91.39
2023-08-15T01:52:47.830Z,91.45
2023-08-15T01:53:47.804Z,91.35
2023-08-15T01:54:47.798Z,91.45
2023-08-15T01:55:47.776Z,91.25
2023-08-15T01:56:47.813Z,91.15
2023-08-15T01:57:47.777Z,91.55
2023-08-15T01:58:47.755Z,91.45
2023-08-15T01:59:47.741Z,91.30
2023-08-15T02:00:47.752Z,91.45
2023-08-15T02:01:47.813Z,91.55
2023-08-15T02:02:47.772Z,91.39
2023-08-15T02:03:47.696Z,91.25
2023-08-15T02:04:47.701Z,91.60
2023-08-15T02:05:47.713Z,91.15
2023-08-15T02:06:47.691Z,91.15
2023-08-15T02:07:47.655Z,90.55
2023-08-15T02:08:47.667Z,91.15
2023-08-15T02:09:47.647Z,91.05
2023-08-15T02:10:47.661Z,91.15
2023-08-15T02:11:47.653Z,91.35
2023-08-15T02:12:47.658Z,91.39
2023-08-15T02:13:47.607Z,91.05
2023-08-15T02:14:47.608Z,91.50
2023-08-15T02:15:47.657Z,91.39
2023-08-15T02:16:47.600Z,91.30
2023-08-15T02:17:47.604Z,91.60
2023-08-15T02:18:47.567Z,91.39
2023-08-15T02:19:47.560Z,91.60
2023-08-15T02:20:47.575Z,91.30
2023-08-15T02:21:47.529Z,91.69
2023-08-15T02:22:47.538Z,91.39
2023-08-15T02:23:47.487Z,91.89
2023-08-15T02:24:47.504Z,91.50
2023-08-15T02:25:47.506Z,91.80
2023-08-15T02:26:47.498Z,92.34
2023-08-15T02:27:47.473Z,92.24
2023-08-15T02:28:47.464Z,92.44
2023-08-15T02:29:47.493Z,92.84
2023-08-15T02:30:47.446Z,92.54
2023-08-15T02:31:47.435Z,92.65
2023-08-15T02:32:47.449Z,93.20
2023-08-15T02:33:47.408Z,93.15
2023-08-15T02:34:47.433Z,93.15
2023-08-15T02:35:47.430Z,93.24
2023-08-15T02:36:47.417Z,92.80
2023-08-15T02:37:47.366Z,92.50
2023-08-15T02:38:48.382Z,92.94
2023-08-15T02:39:47.554Z,92.74
2023-08-15T02:40:47.350Z,92.40
2023-08-15T02:41:47.334Z,92.60
2023-08-15T02:42:47.317Z,92.80
2023-08-15T02:43:47.317Z,92.54
2023-08-15T02:44:47.312Z,93.10
2023-08-15T02:45:47.322Z,93.00
2023-08-15T02:46:47.311Z,93.00
2023-08-15T02:47:47.344Z,93.24
2023-08-15T02:48:47.291Z,94.05
2023-08-15T02:49:47.262Z,93.65
2023-08-15T02:50:47.260Z,93.35
2023-08-15T02:51:47.229Z,93.74
2023-08-15T02:52:47.264Z,93.65
2023-08-15T02:53:47.246Z,93.65
2023-08-15T02:54:47.220Z,93.65
2023-08-15T02:55:47.201Z,93.65
2023-08-15T02:56:47.195Z,93.50
2023-08-15T02:57:47.206Z,93.55
2023-08-15T02:58:47.177Z,92.90
2023-08-15T02:59:47.167Z,93.04
2023-08-15T03:00:47.254Z,93.15
2023-08-15T03:01:47.271Z,92.90
2023-08-15T03:02:47.162Z,93.15
2023-08-15T03:03:47.115Z,93.04
2023-08-15T03:04:47.111Z,93.24
2023-08-15T03:05:47.102Z,93.15
2023-08-15T03:06:47.121Z,93.15
2023-08-15T03:07:47.073Z,93.85
2023-08-15T03:08:47.076Z,93.55
2023-08-15T03:09:47.098Z,93.35
2023-08-15T03:10:47.061Z,93.24
2023-08-15T03:11:47.061Z,93.55
2023-08-15T03:12:47.203Z,93.35
2023-08-15T03:13:47.033Z,93.15
2023-08-15T03:14:47.011Z,93.15
2023-08-15T03:15:47.026Z,93.10
2023-08-15T03:16:47.098Z,93.95
2023-08-15T03:17:47.027Z,94.05
2023-08-15T03:18:46.957Z,93.95
2023-08-15T03:19:46.984Z,93.95
2023-08-15T03:20:46.981Z,93.24
2023-08-15T03:21:46.971Z,93.20
2023-08-15T03:22:46.942Z,93.24
2023-08-15T03:23:46.937Z,93.95
2023-08-15T03:24:46.959Z,93.74
2023-08-15T03:25:47.013Z,93.95
2023-08-15T03:26:46.905Z,94.59
2023-08-15T03:27:46.899Z,95.00
2023-08-15T03:28:46.898Z,96.45
2023-08-15T03:29:46.894Z,96.15
2023-08-15T03:30:46.966Z,96.80
2023-08-15T03:31:46.896Z,96.19
2023-08-15T03:32:46.883Z,97.90
2023-08-15T03:33:46.868Z,96.54
2023-08-15T03:34:46.831Z,96.39
2023-08-15T03:35:46.828Z,97.20
2023-08-15T03:36:46.812Z,96.69
2023-08-15T03:37:46.794Z,96.55
2023-08-15T03:38:46.788Z,96.15
2023-08-15T03:39:46.785Z,96.50
2023-08-15T03:40:46.768Z,96.15
2023-08-15T03:41:46.775Z,96.15
2023-08-15T03:42:46.746Z,95.95
2023-08-15T03:43:46.748Z,95.64
2023-08-15T03:44:46.761Z,96.04
2023-08-15T03:45:46.781Z,96.04
2023-08-15T03:46:46.731Z,95.10
2023-08-15T03:47:46.750Z,95.30
2023-08-15T03:48:46.687Z,94.70
2023-08-15T03:49:46.694Z,94.90
2023-08-15T03:50:46.667Z,94.90
2023-08-15T03:51:47.707Z,94.70
2023-08-15T03:52:47.637Z,94.59
2023-08-15T03:53:46.689Z,94.70
2023-08-15T03:54:46.630Z,94.59
2023-08-15T03:55:46.633Z,94.59
2023-08-15T03:56:46.613Z,94.70
2023-08-15T03:57:46.622Z,94.70
2023-08-15T03:58:46.612Z,94.90
2023-08-15T03:59:46.599Z,94.39
2023-08-15T04:00:46.561Z,94.70
2023-08-15T04:01:46.623Z,94.95
2023-08-15T04:02:46.569Z,94.45
2023-08-15T04:03:46.582Z,94.09
2023-08-15T04:04:47.520Z,94.70
2023-08-15T04:05:46.522Z,94.65
2023-08-15T04:06:46.504Z,94.25
2023-08-15T04:07:46.510Z,94.75
2023-08-15T04:08:46.494Z,94.55
2023-08-15T04:09:46.511Z,94.55
2023-08-15T04:10:46.473Z,94.55
2023-08-15T04:11:46.470Z,94.05
2023-08-15T04:12:46.477Z,94.25
2023-08-15T04:13:46.448Z,93.95
2023-08-15T04:14:46.447Z,93.95
2023-08-15T04:15:46.432Z,94.00
2023-08-15T04:16:49.053Z,93.85
2023-08-15T04:17:47.421Z,94.00
2023-08-15T04:18:46.412Z,94.55
2023-08-15T04:19:46.382Z,94.51
2023-08-15T04:20:46.374Z,94.55
2023-08-15T04:21:46.369Z,94.20
2023-08-15T04:22:46.475Z,94.31
2023-08-15T04:23:46.382Z,94.10
2023-08-15T04:24:46.341Z,94.81
2023-08-15T04:25:46.347Z,94.71
2023-08-15T04:26:46.326Z,94.71
2023-08-15T04:27:46.310Z,95.01
2023-08-15T04:28:46.311Z,95.01
2023-08-15T04:29:46.300Z,94.00
2023-08-15T04:30:46.293Z,94.31
2023-08-15T04:31:46.359Z,94.66
2023-08-15T04:32:46.397Z,94.60
2023-08-15T04:33:46.248Z,93.86
2023-08-15T04:34:47.041Z,93.66
2023-08-15T04:35:46.276Z,93.96
2023-08-15T04:36:46.265Z,93.76
2023-08-15T04:37:46.207Z,93.66
2023-08-15T04:38:46.198Z,93.96
2023-08-15T04:39:46.202Z,93.71
2023-08-15T04:40:46.259Z,93.62
2023-08-15T04:41:46.177Z,93.21
2023-08-15T04:42:46.164Z,93.31
2023-08-15T04:43:46.153Z,93.51
2023-08-15T04:44:46.189Z,93.21
2023-08-15T04:45:46.159Z,93.41
2023-08-15T04:46:46.115Z,92.91
2023-08-15T04:47:46.136Z,93.11
2023-08-15T04:48:46.090Z,94.21
2023-08-15T04:49:47.531Z,93.71
2023-08-15T04:50:46.083Z,93.87
2023-08-15T04:51:46.077Z,94.57
2023-08-15T04:52:46.058Z,93.77
2023-08-15T04:53:46.066Z,93.17
2023-08-15T04:54:46.068Z,93.67
2023-08-15T04:55:47.021Z,94.51
2023-08-15T04:56:46.012Z,94.62
2023-08-15T04:57:46.033Z,94.31
2023-08-15T04:58:46.012Z,94.51
2023-08-15T04:59:45.996Z,93.91
2023-08-15T05:00:45.969Z,93.87
2023-08-15T05:01:45.986Z,93.47
2023-08-15T05:02:46.020Z,93.51
2023-08-15T05:03:46.280Z,93.47
2023-08-15T05:04:45.934Z,93.01
2023-08-15T05:05:45.980Z,92.86
2023-08-15T05:06:45.925Z,92.97
2023-08-15T05:07:45.923Z,92.67
2023-08-15T05:08:45.922Z,93.11
2023-08-15T05:09:45.898Z,93.62
2023-08-15T05:10:45.878Z,93.62
2023-08-15T05:11:45.870Z,93.96
2023-08-15T05:12:45.953Z,94.26
2023-08-15T05:13:45.858Z,94.46
2023-08-15T05:14:45.853Z,94.76
2023-08-15T05:15:45.887Z,94.46
2023-08-15T05:16:45.846Z,94.46
2023-08-15T05:17:45.873Z,94.46
2023-08-15T05:18:45.819Z,94.76
2023-08-15T05:19:45.794Z,95.06
2023-08-15T05:20:45.797Z,95.97
2023-08-15T05:21:45.836Z,96.06
2023-08-15T05:22:45.915Z,96.47
2023-08-15T05:23:45.764Z,96.61
2023-08-15T05:24:45.771Z,96.61
2023-08-15T05:25:45.781Z,96.71
2023-08-15T05:26:45.747Z,96.47
2023-08-15T05:27:45.741Z,96.91
2023-08-15T05:28:47.274Z,96.71
2023-08-15T05:29:45.710Z,96.91
2023-08-15T05:30:45.707Z,96.81
2023-08-15T05:31:45.706Z,96.61
2023-08-15T05:32:46.841Z,96.26
2023-08-15T05:33:45.675Z,96.21
2023-08-15T05:34:45.643Z,96.17
2023-08-15T05:35:45.663Z,96.47
2023-08-15T05:36:45.655Z,96.36
2023-08-15T05:37:45.637Z,96.17
2023-08-15T05:38:45.607Z,96.26
2023-08-15T05:39:45.609Z,96.67
2023-08-15T05:40:45.588Z,96.91
2023-08-15T05:41:45.594Z,97.86
2023-08-15T05:42:45.759Z,98.61
2023-08-15T05:43:45.601Z,98.91
2023-08-15T05:44:45.546Z,99.99
2023-08-15T05:45:45.553Z,99.99
2023-08-15T05:46:45.560Z,99.99
2023-08-15T05:47:45.547Z,99.52
2023-08-15T05:48:45.510Z,99.77
2023-08-15T05:49:45.510Z,99.77
2023-08-15T05:50:45.512Z,99.71
2023-08-15T05:51:45.461Z,99.52
2023-08-15T05:52:45.464Z,99.99
2023-08-15T05:53:45.450Z,99.67
2023-08-15T05:54:45.471Z,99.97
2023-08-15T05:55:45.455Z,99.27
2023-08-15T05:56:45.423Z,98.71
2023-08-15T05:57:45.400Z,99.21
2023-08-15T05:58:45.403Z,99.99
2023-08-15T05:59:45.451Z,99.82
2023-08-15T06:00:45.397Z,99.01
2023-08-15T06:01:45.391Z,99.06
2023-08-15T06:02:46.417Z,99.99
2023-08-15T06:03:52.560Z,99.99
2023-08-15T06:04:47.379Z,99.99
2023-08-15T06:05:45.321Z,99.99
2023-08-15T06:06:45.333Z,99.99
2023-08-15T06:07:45.310Z,99.99
2023-08-15T06:08:45.332Z,99.99
2023-08-15T06:09:45.293Z,99.99
2023-08-15T06:10:45.285Z,99.99
2023-08-15T06:11:45.291Z,99.99
2023-08-15T06:12:45.258Z,99.99
2023-08-15T06:13:45.269Z,99.99
2023-08-15T06:14:45.239Z,99.99
2023-08-15T06:15:45.241Z,99.99
2023-08-15T06:16:45.303Z,99.77
2023-08-15T06:17:45.284Z,99.97
2023-08-15T06:18:45.248Z,99.99
2023-08-15T06:19:45.210Z,97.56
2023-08-15T06:20:45.193Z,97.86
2023-08-15T06:21:45.182Z,98.32
2023-08-15T06:22:45.185Z,98.22
2023-08-15T06:23:45.167Z,98.22
2023-08-15T06:24:45.200Z,98.32
2023-08-15T06:25:45.137Z,98.02
2023-08-15T06:26:45.151Z,96.71
2023-08-15T06:27:45.132Z,98.11
2023-08-15T06:28:45.124Z,97.52
2023-08-15T06:29:45.098Z,97.61
2023-08-15T06:30:45.103Z,98.32
2023-08-15T06:31:45.144Z,99.47
2023-08-15T06:32:45.110Z,99.99
2023-08-15T06:33:45.080Z,99.99
2023-08-15T06:34:45.103Z,99.77
2023-08-15T06:35:45.042Z,99.99
2023-08-15T06:36:45.043Z,98.72
2023-08-15T06:37:45.012Z,98.07
2023-08-15T06:38:45.019Z,98.63
2023-08-15T06:39:44.992Z,97.92
2023-08-15T06:40:44.995Z,97.87
2023-08-15T06:41:45.005Z,97.27
2023-08-15T06:42:44.982Z,97.52
2023-08-15T06:43:44.951Z,98.02
2023-08-15T06:44:45.021Z,97.06
2023-08-15T06:45:44.967Z,99.12
2023-08-15T06:46:45.034Z,99.99
2023-08-15T06:47:44.950Z,98.92
2023-08-15T06:48:44.920Z,99.98
2023-08-15T06:49:44.885Z,98.32
2023-08-15T06:50:46.682Z,98.36
2023-08-15T06:51:44.875Z,98.32
2023-08-15T06:52:44.878Z,97.97
2023-08-15T06:53:44.903Z,97.97
2023-08-15T06:54:44.886Z,98.63
2023-08-15T06:55:44.853Z,98.48
2023-08-15T06:56:44.827Z,97.33
2023-08-15T06:57:44.827Z,96.37
2023-08-15T06:58:44.823Z,97.17
2023-08-15T06:59:44.887Z,96.58
2023-08-15T07:00:44.834Z,97.08
2023-08-15T07:01:45.120Z,97.58
2023-08-15T07:02:44.809Z,96.77
2023-08-15T07:03:44.910Z,96.53
2023-08-15T07:04:44.754Z,93.63
2023-08-15T07:05:44.738Z,94.29
2023-08-15T07:06:44.725Z,94.26
2023-08-15T07:07:44.745Z,90.32
2023-08-15T07:08:44.741Z,89.81
2023-08-15T07:09:44.725Z,90.89
2023-08-15T07:10:44.691Z,94.70
2023-08-15T07:11:44.692Z,91.50
2023-08-15T07:12:46.635Z,91.15
2023-08-15T07:13:45.668Z,92.80
2023-08-15T07:14:44.653Z,92.40
2023-08-15T07:15:44.632Z,90.72
2023-08-15T07:16:44.738Z,90.39
2023-08-15T07:17:44.627Z,86.20
2023-08-15T07:18:44.644Z,85.39
2023-08-15T07:19:44.617Z,88.40
2023-08-15T07:20:44.587Z,88.46
2023-08-15T07:21:44.569Z,87.98
2023-08-15T07:22:44.582Z,88.24
2023-08-15T07:23:44.588Z,86.26
2023-08-15T07:24:44.580Z,85.86
2023-08-15T07:25:44.566Z,86.22
2023-08-15T07:26:44.535Z,84.63
2023-08-15T07:27:44.537Z,86.16
2023-08-15T07:28:44.515Z,85.42
2023-08-15T07:29:45.494Z,86.06
2023-08-15T07:30:44.521Z,86.06
2023-08-15T07:31:44.506Z,86.36
2023-08-15T07:32:44.547Z,85.96
2023-08-15T07:33:44.474Z,86.96
2023-08-15T07:34:44.496Z,85.71
2023-08-15T07:35:44.448Z,85.71
2023-08-15T07:36:44.466Z,86.50
2023-08-15T07:37:44.445Z,85.85
2023-08-15T07:38:44.467Z,87.18
2023-08-15T07:39:44.399Z,87.92
2023-08-15T07:40:44.398Z,87.52
2023-08-15T07:41:44.473Z,87.88
2023-08-15T07:42:44.388Z,88.58
2023-08-15T07:43:45.398Z,88.28
2023-08-15T07:44:44.358Z,87.28
2023-08-15T07:45:44.386Z,87.58
2023-08-15T07:46:44.346Z,87.74
2023-08-15T07:47:44.335Z,88.08
2023-08-15T07:48:44.316Z,88.18
2023-08-15T07:49:44.350Z,88.72
2023-08-15T07:50:44.311Z,89.72
2023-08-15T07:51:44.299Z,89.73
2023-08-15T07:52:44.288Z,89.69
2023-08-15T07:53:44.277Z,88.75
2023-08-15T07:54:44.262Z,89.01
2023-08-15T07:55:44.260Z,87.91
2023-08-15T07:56:44.236Z,88.21
2023-08-15T07:57:44.224Z,87.51
2023-08-15T07:58:44.229Z,85.88
2023-08-15T07:59:44.231Z,87.41
2023-08-15T08:00:44.270Z,88.15
2023-08-15T08:01:44.256Z,87.76
2023-08-15T08:02:44.181Z,88.75
2023-08-15T08:03:44.178Z,89.65
2023-08-15T08:04:44.212Z,89.84
2023-08-15T08:05:44.244Z,89.65
2023-08-15T08:06:44.173Z,89.75
2023-08-15T08:07:44.143Z,89.45
2023-08-15T08:08:44.139Z,88.15
2023-08-15T08:09:44.137Z,88.45
2023-08-15T08:10:44.130Z,88.01
2023-08-15T08:11:44.098Z,87.85
2023-08-15T08:12:44.173Z,88.11
2023-08-15T08:13:44.103Z,87.81
2023-08-15T08:14:48.790Z,87.62
2023-08-15T08:15:46.166Z,87.62
2023-08-15T08:16:44.064Z,88.01
2023-08-15T08:17:44.042Z,87.32
2023-08-15T08:18:44.082Z,87.12
2023-08-15T08:19:44.019Z,87.91
2023-08-15T08:20:44.036Z,87.41
2023-08-15T08:21:43.987Z,87.95
2023-08-15T08:22:43.981Z,87.81
2023-08-15T08:23:43.995Z,86.91
2023-08-15T08:24:43.966Z,85.52
2023-08-15T08:25:43.995Z,85.22
2023-08-15T08:26:43.981Z,86.12
2023-08-15T08:27:43.939Z,86.26
2023-08-15T08:28:43.934Z,86.06
2023-08-15T08:29:43.904Z,87.46
2023-08-15T08:30:43.911Z,88.06
2023-08-15T08:31:43.964Z,87.26
2023-08-15T08:32:43.925Z,87.32
2023-08-15T08:33:43.896Z,87.12
2023-08-15T08:34:43.868Z,86.32
2023-08-15T08:35:43.851Z,86.61
2023-08-15T08:36:43.847Z,85.52
2023-08-15T08:37:43.875Z,85.28
2023-08-15T08:38:43.833Z,83.19
2023-08-15T08:39:43.866Z,83.79
2023-08-15T08:40:43.817Z,84.78
2023-08-15T08:41:43.823Z,86.14
2023-08-15T08:42:43.796Z,85.44
2023-08-15T08:43:43.791Z,84.25
2023-08-15T08:44:43.769Z,84.01
2023-08-15T08:45:43.854Z,82.62
2023-08-15T08:46:43.756Z,83.01
2023-08-15T08:47:43.780Z,83.51
2023-08-15T08:48:43.766Z,82.92
2023-08-15T08:49:43.751Z,83.61
2023-08-15T08:50:43.708Z,83.37
2023-08-15T08:51:43.713Z,82.78
2023-08-15T08:52:43.705Z,84.01
2023-08-15T08:53:43.672Z,82.65
2023-08-15T08:54:56.627Z,83.61
2023-08-15T08:55:45.658Z,82.92
2023-08-15T08:56:43.688Z,82.48
2023-08-15T08:57:43.653Z,81.68
2023-08-15T08:58:43.695Z,80.69
2023-08-15T08:59:44.647Z,80.79
2023-08-15T09:00:43.622Z,80.55
2023-08-15T09:01:43.667Z,81.15
2023-08-15T09:02:43.719Z,80.45
2023-08-15T09:03:43.609Z,79.46
2023-08-15T09:04:43.580Z,79.36
2023-08-15T09:05:43.587Z,75.29
2023-08-15T09:06:43.564Z,76.78
2023-08-15T09:07:43.560Z,76.08
2023-08-15T09:08:43.527Z,75.29
2023-08-15T09:09:43.529Z,76.25
2023-08-15T09:10:43.537Z,76.64
2023-08-15T09:11:43.538Z,76.84
2023-08-15T09:12:43.496Z,74.76
2023-08-15T09:13:43.487Z,75.88
2023-08-15T09:14:44.024Z,73.96
2023-08-15T09:15:43.510Z,75.05
2023-08-15T09:16:43.461Z,73.30
2023-08-15T09:17:43.522Z,74.69
2023-08-15T09:18:43.430Z,75.59
2023-08-15T09:19:43.441Z,76.08
2023-08-15T09:20:43.423Z,76.08
2023-08-15T09:21:43.432Z,74.26
2023-08-15T09:22:43.405Z,75.78
2023-08-15T09:23:43.427Z,74.95
2023-08-15T09:24:43.721Z,73.27
2023-08-15T09:25:43.420Z,73.46
2023-08-15T09:26:43.360Z,72.67
2023-08-15T09:27:43.366Z,68.20
2023-08-15T09:28:43.339Z,68.00
2023-08-15T09:29:43.348Z,65.42
2023-08-15T09:30:43.318Z,67.31
2023-08-15T09:31:43.369Z,68.17
2023-08-15T09:32:43.352Z,69.29
2023-08-15T09:33:43.323Z,68.80
2023-08-15T09:34:43.289Z,69.46
2023-08-15T09:35:56.673Z,68.57
2023-08-15T09:36:43.295Z,68.86
2023-08-15T09:37:43.265Z,70.55
2023-08-15T09:38:43.332Z,70.55
2023-08-15T09:39:43.218Z,70.15
2023-08-15T09:40:43.244Z,68.50
2023-08-15T09:41:43.264Z,69.09
2023-08-15T09:42:43.210Z,69.26
2023-08-15T09:43:43.177Z,70.65
2023-08-15T09:44:43.170Z,68.76
2023-08-15T09:45:43.156Z,68.27
2023-08-15T09:46:43.205Z,70.06
2023-08-15T09:47:43.276Z,70.75
2023-08-15T09:48:43.171Z,69.26
2023-08-15T09:49:43.139Z,70.15
2023-08-15T09:50:43.164Z,69.72
2023-08-15T09:51:43.134Z,69.53
2023-08-15T09:52:43.195Z,70.12
2023-08-15T09:53:43.112Z,69.62
2023-08-15T09:54:43.080Z,68.93
2023-08-15T09:55:43.090Z,69.09
2023-08-15T09:56:43.084Z,69.49
2023-08-15T09:57:43.047Z,68.80
2023-08-15T09:58:43.086Z,69.09
2023-08-15T09:59:43.035Z,68.60
2023-08-15T10:00:43.112Z,68.07
2023-08-15T10:01:43.070Z,69.26
2023-08-15T10:02:43.058Z,68.46
2023-08-15T10:03:43.019Z,68.24
2023-08-15T10:04:43.040Z,67.64
2023-08-15T10:05:42.997Z,69.32
2023-08-15T10:06:42.990Z,69.72
2023-08-15T10:07:42.984Z,67.51
2023-08-15T10:08:42.949Z,67.51
2023-08-15T10:09:42.953Z,69.39
2023-08-15T10:10:42.943Z,69.69
2023-08-15T10:11:42.923Z,69.75
2023-08-15T10:12:43.940Z,68.96
2023-08-15T10:13:42.898Z,68.66
2023-08-15T10:14:42.883Z,65.03
2023-08-15T10:15:42.913Z,66.91
2023-08-15T10:16:42.921Z,67.68
2023-08-15T10:17:42.985Z,68.17
2023-08-15T10:18:42.928Z,67.77
2023-08-15T10:19:42.893Z,67.28
2023-08-15T10:20:42.834Z,67.87
2023-08-15T10:21:42.813Z,67.77
2023-08-15T10:22:42.810Z,68.07
2023-08-15T10:23:42.787Z,67.87
2023-08-15T10:24:42.860Z,67.14
2023-08-15T10:25:42.778Z,67.87
2023-08-15T10:26:42.777Z,66.85
2023-08-15T10:27:42.749Z,67.94
2023-08-15T10:28:42.754Z,68.53
2023-08-15T10:29:42.763Z,68.43
2023-08-15T10:30:42.977Z,68.90
2023-08-15T10:31:42.750Z,67.80
2023-08-15T10:32:42.722Z,67.97
2023-08-15T10:33:42.717Z,67.08
2023-08-15T10:34:42.719Z,66.49
2023-08-15T10:35:42.703Z,67.68
2023-08-15T10:36:42.731Z,68.37
2023-08-15T10:37:42.761Z,69.02
2023-08-15T10:38:43.665Z,67.74
2023-08-15T10:39:42.684Z,67.71
2023-08-15T10:40:42.701Z,66.46
2023-08-15T10:41:42.646Z,66.92
2023-08-15T10:42:42.610Z,66.42
2023-08-15T10:43:42.650Z,66.59
2023-08-15T10:44:42.588Z,66.69
2023-08-15T10:45:42.607Z,66.39
2023-08-15T10:46:42.602Z,65.47
2023-08-15T10:47:42.737Z,64.42
2023-08-15T10:48:51.733Z,65.64
2023-08-15T10:49:44.559Z,65.28
2023-08-15T10:50:42.575Z,65.11
2023-08-15T10:51:42.547Z,66.46
2023-08-15T10:52:42.540Z,65.47
2023-08-15T10:53:42.522Z,63.08
2023-08-15T10:54:42.498Z,62.36
2023-08-15T10:55:42.570Z,63.15
2023-08-15T10:56:42.490Z,63.05
2023-08-15T10:57:42.488Z,62.85
2023-08-15T10:58:43.014Z,63.41
2023-08-15T10:59:42.462Z,63.02
2023-08-15T11:00:42.449Z,63.51
2023-08-15T11:01:42.556Z,63.28
2023-08-15T11:02:42.457Z,63.67
2023-08-15T11:03:42.460Z,62.76
2023-08-15T11:04:43.008Z,61.90
2023-08-15T11:05:42.399Z,61.68
2023-08-15T11:06:42.406Z,62.30
2023-08-15T11:07:42.388Z,61.87
2023-08-15T11:08:42.384Z,60.39
2023-08-15T11:09:42.363Z,61.08
2023-08-15T11:10:42.621Z,61.25
2023-08-15T11:11:42.436Z,61.45
2023-08-15T11:12:42.352Z,60.93
2023-08-15T11:13:42.328Z,60.83
2023-08-15T11:14:42.332Z,60.05
2023-08-15T11:15:42.423Z,60.24
2023-08-15T11:16:42.363Z,60.41
2023-08-15T11:17:42.300Z,59.13
2023-08-15T11:18:42.283Z,58.34
2023-08-15T11:19:42.288Z,59.55
2023-08-15T11:20:42.295Z,59.26
2023-08-15T11:21:42.258Z,58.57
2023-08-15T11:22:42.247Z,59.52
2023-08-15T11:23:42.249Z,59.33
2023-08-15T11:24:42.269Z,59.33
2023-08-15T11:25:42.297Z,59.39
2023-08-15T11:26:42.220Z,57.92
2023-08-15T11:27:42.209Z,56.77
2023-08-15T11:28:42.189Z,57.24
2023-08-15T11:29:42.231Z,57.34
2023-08-15T11:30:42.221Z,58.42
2023-08-15T11:31:42.478Z,57.24
2023-08-15T11:32:42.213Z,57.14
2023-08-15T11:33:42.164Z,57.73
2023-08-15T11:34:42.544Z,57.34
2023-08-15T11:35:42.185Z,56.26
2023-08-15T11:36:42.126Z,57.24
2023-08-15T11:37:42.146Z,55.86
2023-08-15T11:38:42.125Z,55.93
2023-08-15T11:39:42.196Z,56.42
2023-08-15T11:40:42.092Z,57.28
2023-08-15T11:41:42.098Z,56.52
2023-08-15T11:42:42.080Z,57.60
2023-08-15T11:43:42.066Z,56.42
2023-08-15T11:44:42.093Z,57.21
2023-08-15T11:45:42.092Z,56.49
2023-08-15T11:47:43.067Z,55.22
2023-08-15T11:48:42.065Z,56.49
2023-08-15T11:49:46.528Z,55.19
2023-08-15T11:50:44.813Z,54.87
2023-08-15T11:51:42.995Z,54.90
2023-08-15T11:52:41.972Z,55.00
2023-08-15T11:53:41.984Z,54.28
2023-08-15T11:54:41.985Z,54.09
2023-08-15T11:55:41.947Z,55.26
2023-08-15T11:56:41.954Z,55.00
2023-08-15T11:57:42.122Z,55.16
2023-08-15T11:58:41.946Z,54.68
2023-08-15T11:59:41.917Z,53.11
2023-08-15T12:00:41.916Z,54.97
2023-08-15T12:01:41.967Z,55.16
2023-08-15T12:02:42.121Z,53.89
2023-08-15T12:03:41.995Z,54.46
2023-08-15T12:04:41.873Z,52.35
2023-08-15T12:05:41.849Z,54.58
2023-08-15T12:06:41.872Z,54.09
2023-08-15T12:07:42.063Z,53.57
2023-08-15T12:08:41.842Z,53.94
2023-08-15T12:09:41.817Z,53.55
2023-08-15T12:10:42.639Z,52.27
2023-08-15T12:11:42.866Z,52.56
2023-08-15T12:12:42.043Z,52.59
2023-08-15T12:13:41.826Z,52.69
2023-08-15T12:14:50.900Z,54.60
2023-08-15T12:15:43.813Z,55.12
2023-08-15T12:16:41.826Z,54.63
2023-08-15T12:17:41.732Z,54.60
2023-08-15T12:18:41.769Z,54.50
2023-08-15T12:19:41.714Z,54.63
2023-08-15T12:20:41.725Z,54.07
2023-08-15T12:21:41.758Z,54.46
2023-08-15T12:22:41.693Z,54.75
2023-08-15T12:23:41.674Z,55.05
2023-08-15T12:24:41.675Z,56.62
2023-08-15T12:25:41.680Z,55.64
2023-08-15T12:26:41.695Z,55.86
2023-08-15T12:27:41.637Z,56.74
2023-08-15T12:28:42.704Z,57.14
2023-08-15T12:29:49.371Z,55.89
2023-08-15T12:30:41.624Z,57.07
2023-08-15T12:31:41.630Z,56.38
2023-08-15T12:32:41.642Z,56.99
2023-08-15T12:33:47.823Z,57.39
2023-08-15T12:34:41.712Z,58.96
2023-08-15T12:35:41.589Z,58.37
2023-08-15T12:36:41.571Z,58.37
2023-08-15T12:37:41.559Z,58.57
2023-08-15T12:38:41.551Z,59.09
2023-08-15T12:39:41.794Z,58.33
2023-08-15T12:40:41.548Z,58.53
2023-08-15T12:41:41.520Z,60.82
2023-08-15T12:42:41.500Z,61.21
2023-08-15T12:43:41.514Z,60.65
2023-08-15T12:44:41.545Z,59.17
2023-08-15T12:45:41.652Z,61.27
2023-08-15T12:46:41.481Z,60.41
2023-08-15T12:47:41.478Z,60.71
2023-08-15T12:48:41.443Z,61.43
2023-08-15T12:49:41.665Z,61.93
2023-08-15T12:50:48.169Z,62.25
2023-08-15T12:51:41.423Z,63.53
2023-08-15T12:52:41.468Z,63.63
2023-08-15T12:53:41.415Z,64.32